sensor_id;sensor_type;location;lat;lon;timestamp;pressure;altitude;pressure_sealevel;temperature;humidity
17230;BME280;8731;50.364;8.958;2023-01-25T00:01:08;102037.22;;;2.96;89.13
17230;BME280;8731;50.364;8.958;2023-01-25T00:05:31;102034.25;;;3.04;89.41
17230;BME280;8731;50.364;8.958;2023-01-25T00:09:53;102032.88;;;3.06;89.74
17230;BME280;8731;50.364;8.958;2023-01-25T00:14:16;102030.63;;;3.08;89.16
17230;BME280;8731;50.364;8.958;2023-01-25T00:18:38;102031.03;;;3.05;89.15
17230;BME280;8731;50.364;8.958;2023-01-25T00:23:02;102038.34;;;2.93;89.90
17230;BME280;8731;50.364;8.958;2023-01-25T00:27:25;102025.78;;;2.93;90.11
17230;BME280;8731;50.364;8.958;2023-01-25T00:32:01;102016.38;;;2.86;90.12
17230;BME280;8731;50.364;8.958;2023-01-25T00:36:49;102024.63;;;2.85;89.92
17230;BME280;8731;50.364;8.958;2023-01-25T00:41:13;102021.44;;;2.92;89.99
17230;BME280;8731;50.364;8.958;2023-01-25T00:45:36;102015.03;;;2.99;89.18
17230;BME280;8731;50.364;8.958;2023-01-25T00:49:58;102014.13;;;3.04;89.25
17230;BME280;8731;50.364;8.958;2023-01-25T00:54:20;102009.53;;;2.85;89.78
17230;BME280;8731;50.364;8.958;2023-01-25T00:58:44;102009.06;;;2.88;89.74
17230;BME280;8731;50.364;8.958;2023-01-25T01:03:07;102018.69;;;2.96;90.10
17230;BME280;8731;50.364;8.958;2023-01-25T01:07:29;102014.09;;;2.93;89.45
17230;BME280;8731;50.364;8.958;2023-01-25T01:11:51;102015.03;;;2.99;88.89
17230;BME280;8731;50.364;8.958;2023-01-25T01:16:15;102010.38;;;2.69;90.29
17230;BME280;8731;50.364;8.958;2023-01-25T01:20:38;102017.25;;;2.81;89.81
17230;BME280;8731;50.364;8.958;2023-01-25T01:25:00;102008.78;;;2.75;90.44
17230;BME280;8731;50.364;8.958;2023-01-25T01:29:23;102017.25;;;2.70;90.33
17230;BME280;8731;50.364;8.958;2023-01-25T01:33:48;102010.16;;;2.67;90.86
17230;BME280;8731;50.364;8.958;2023-01-25T01:38:11;102015.88;;;2.83;90.22
17230;BME280;8731;50.364;8.958;2023-01-25T01:42:55;102008.84;;;2.86;90.61
17230;BME280;8731;50.364;8.958;2023-01-25T01:47:21;102007.69;;;2.90;89.55
17230;BME280;8731;50.364;8.958;2023-01-25T01:51:53;102007.00;;;2.85;90.34
17230;BME280;8731;50.364;8.958;2023-01-25T01:56:28;102003.59;;;2.90;90.41
17230;BME280;8731;50.364;8.958;2023-01-25T02:00:56;102000.78;;;2.72;90.98
17230;BME280;8731;50.364;8.958;2023-01-25T02:05:21;102006.75;;;2.78;91.47
17230;BME280;8731;50.364;8.958;2023-01-25T02:09:49;102001.47;;;2.82;89.79
17230;BME280;8731;50.364;8.958;2023-01-25T02:14:13;101999.00;;;2.88;90.27
17230;BME280;8731;50.364;8.958;2023-01-25T02:18:37;101997.41;;;2.88;90.27
17230;BME280;8731;50.364;8.958;2023-01-25T02:23:05;101988.22;;;2.83;90.42
17230;BME280;8731;50.364;8.958;2023-01-25T02:27:41;101996.25;;;2.86;89.80
17230;BME280;8731;50.364;8.958;2023-01-25T02:32:08;101997.41;;;2.88;90.62
17230;BME280;8731;50.364;8.958;2023-01-25T02:36:32;101990.56;;;2.87;89.92
17230;BME280;8731;50.364;8.958;2023-01-25T02:40:59;101984.56;;;2.81;90.24
17230;BME280;8731;50.364;8.958;2023-01-25T02:45:28;101982.53;;;2.90;89.89
17230;BME280;8731;50.364;8.958;2023-01-25T02:49:51;101985.25;;;2.80;89.55
17230;BME280;8731;50.364;8.958;2023-01-25T02:54:16;101979.53;;;2.81;89.24
17230;BME280;8731;50.364;8.958;2023-01-25T02:58:39;101979.97;;;2.62;90.92
17230;BME280;8731;50.364;8.958;2023-01-25T03:03:04;101981.34;;;2.76;90.72
17230;BME280;8731;50.364;8.958;2023-01-25T03:07:27;101969.25;;;2.74;90.12
17230;BME280;8731;50.364;8.958;2023-01-25T03:11:50;101968.31;;;2.79;89.27
17230;BME280;8731;50.364;8.958;2023-01-25T03:16:15;101975.16;;;2.63;89.87
17230;BME280;8731;50.364;8.958;2023-01-25T03:20:39;101967.34;;;2.56;91.41
17230;BME280;8731;50.364;8.958;2023-01-25T03:25:03;101959.34;;;2.47;92.04
17230;BME280;8731;50.364;8.958;2023-01-25T03:29:28;101958.72;;;2.71;91.22
17230;BME280;8731;50.364;8.958;2023-01-25T03:33:51;101951.13;;;2.60;91.04
17230;BME280;8731;50.364;8.958;2023-01-25T03:38:21;101949.81;;;2.67;90.26
17230;BME280;8731;50.364;8.958;2023-01-25T03:42:44;101936.94;;;2.49;91.00
17230;BME280;8731;50.364;8.958;2023-01-25T03:47:07;101940.75;;;2.30;92.13
17230;BME280;8731;50.364;8.958;2023-01-25T03:51:29;101938.03;;;2.29;91.86
17230;BME280;8731;50.364;8.958;2023-01-25T03:55:54;101941.50;;;2.40;91.27
17230;BME280;8731;50.364;8.958;2023-01-25T04:00:18;101938.06;;;2.40;91.48
17230;BME280;8731;50.364;8.958;2023-01-25T04:04:49;101933.28;;;2.47;91.40
17230;BME280;8731;50.364;8.958;2023-01-25T04:09:14;101936.72;;;2.47;90.67
17230;BME280;8731;50.364;8.958;2023-01-25T04:13:46;101942.66;;;2.42;90.85
17230;BME280;8731;50.364;8.958;2023-01-25T04:18:14;101933.00;;;2.29;91.96
17230;BME280;8731;50.364;8.958;2023-01-25T04:22:36;101922.09;;;2.51;91.29
17230;BME280;8731;50.364;8.958;2023-01-25T04:26:59;101915.00;;;2.54;91.39
17230;BME280;8731;50.364;8.958;2023-01-25T04:31:26;101896.50;;;2.59;91.00
17230;BME280;8731;50.364;8.958;2023-01-25T04:35:51;101904.50;;;2.51;90.32
17230;BME280;8731;50.364;8.958;2023-01-25T04:40:14;101908.06;;;2.19;92.17
17230;BME280;8731;50.364;8.958;2023-01-25T04:44:39;101898.94;;;2.14;93.63
17230;BME280;8731;50.364;8.958;2023-01-25T04:49:03;101905.56;;;2.13;92.10
17230;BME280;8731;50.364;8.958;2023-01-25T04:53:26;101889.34;;;2.17;92.80
17230;BME280;8731;50.364;8.958;2023-01-25T04:57:53;101875.25;;;2.40;91.63
17230;BME280;8731;50.364;8.958;2023-01-25T05:02:16;101877.31;;;2.42;90.79
17230;BME280;8731;50.364;8.958;2023-01-25T05:06:40;101879.31;;;2.34;90.92
17230;BME280;8731;50.364;8.958;2023-01-25T05:11:02;101879.78;;;2.31;91.67
17230;BME280;8731;50.364;8.958;2023-01-25T05:15:43;101869.94;;;2.27;91.24
17230;BME280;8731;50.364;8.958;2023-01-25T05:20:08;101869.03;;;2.32;91.09
17230;BME280;8731;50.364;8.958;2023-01-25T05:24:34;101873.38;;;2.28;91.97
17230;BME280;8731;50.364;8.958;2023-01-25T05:29:01;101865.88;;;2.39;90.45
17230;BME280;8731;50.364;8.958;2023-01-25T05:33:39;101863.13;;;2.43;91.06
17230;BME280;8731;50.364;8.958;2023-01-25T05:38:01;101859.47;;;2.41;91.69
17230;BME280;8731;50.364;8.958;2023-01-25T05:42:25;101855.31;;;2.30;91.32
17230;BME280;8731;50.364;8.958;2023-01-25T05:46:48;101870.41;;;2.25;91.92
17230;BME280;8731;50.364;8.958;2023-01-25T05:51:11;101870.84;;;2.28;92.04
17230;BME280;8731;50.364;8.958;2023-01-25T05:55:34;101864.47;;;2.35;91.79
17230;BME280;8731;50.364;8.958;2023-01-25T06:00:04;101868.34;;;2.28;91.59
17230;BME280;8731;50.364;8.958;2023-01-25T06:04:33;101864.00;;;2.21;91.73
17230;BME280;8731;50.364;8.958;2023-01-25T06:09:00;101857.97;;;1.93;92.46
17230;BME280;8731;50.364;8.958;2023-01-25T06:13:22;101865.75;;;2.00;93.14
17230;BME280;8731;50.364;8.958;2023-01-25T06:17:46;101860.81;;;2.22;92.29
17230;BME280;8731;50.364;8.958;2023-01-25T06:22:17;101862.56;;;2.12;92.53
17230;BME280;8731;50.364;8.958;2023-01-25T06:26:39;101861.50;;;2.21;92.04
17230;BME280;8731;50.364;8.958;2023-01-25T06:31:05;101858.72;;;2.14;92.50
17230;BME280;8731;50.364;8.958;2023-01-25T06:35:31;101868.78;;;2.14;93.13
17230;BME280;8731;50.364;8.958;2023-01-25T06:39:54;101868.56;;;2.18;93.00
17230;BME280;8731;50.364;8.958;2023-01-25T06:44:16;101866.00;;;2.07;93.21
17230;BME280;8731;50.364;8.958;2023-01-25T06:48:39;101866.28;;;2.14;93.21
17230;BME280;8731;50.364;8.958;2023-01-25T06:53:03;101858.31;;;2.33;92.20
17230;BME280;8731;50.364;8.958;2023-01-25T06:57:25;101867.91;;;2.36;91.37
17230;BME280;8731;50.364;8.958;2023-01-25T07:01:48;101853.97;;;2.32;91.87
17230;BME280;8731;50.364;8.958;2023-01-25T07:06:10;101862.41;;;2.33;92.13
17230;BME280;8731;50.364;8.958;2023-01-25T07:10:34;101851.44;;;2.27;91.13
17230;BME280;8731;50.364;8.958;2023-01-25T07:14:56;101849.16;;;2.28;91.35
17230;BME280;8731;50.364;8.958;2023-01-25T07:19:19;101850.75;;;2.28;91.78
17230;BME280;8731;50.364;8.958;2023-01-25T07:23:41;101846.66;;;2.28;92.39
17230;BME280;8731;50.364;8.958;2023-01-25T07:28:05;101846.88;;;2.30;91.24
17230;BME280;8731;50.364;8.958;2023-01-25T07:32:27;101852.59;;;2.23;91.89
17230;BME280;8731;50.364;8.958;2023-01-25T07:36:49;101848.00;;;2.21;91.73
17230;BME280;8731;50.364;8.958;2023-01-25T07:41:12;101844.13;;;2.28;91.55
17230;BME280;8731;50.364;8.958;2023-01-25T07:45:36;101840.25;;;2.25;92.08
17230;BME280;8731;50.364;8.958;2023-01-25T07:49:59;101845.28;;;2.25;91.40
17230;BME280;8731;50.364;8.958;2023-01-25T07:54:22;101844.13;;;2.17;92.32
17230;BME280;8731;50.364;8.958;2023-01-25T07:58:44;101834.53;;;2.14;91.95
17230;BME280;8731;50.364;8.958;2023-01-25T08:03:08;101837.72;;;2.19;91.47
17230;BME280;8731;50.364;8.958;2023-01-25T08:07:30;101835.69;;;2.28;91.63
17230;BME280;8731;50.364;8.958;2023-01-25T08:11:52;101850.75;;;2.22;92.27
17230;BME280;8731;50.364;8.958;2023-01-25T08:16:15;101853.72;;;2.25;91.30
17230;BME280;8731;50.364;8.958;2023-01-25T08:20:40;101848.25;;;2.28;92.35
17230;BME280;8731;50.364;8.958;2023-01-25T08:25:03;101849.63;;;2.31;91.34
17230;BME280;8731;50.364;8.958;2023-01-25T08:29:26;101849.84;;;2.27;91.91
17230;BME280;8731;50.364;8.958;2023-01-25T08:33:48;101843.44;;;2.18;91.35
17230;BME280;8731;50.364;8.958;2023-01-25T08:38:12;101837.50;;;2.29;91.34
17230;BME280;8731;50.364;8.958;2023-01-25T08:42:35;101834.03;;;2.06;93.34
17230;BME280;8731;50.364;8.958;2023-01-25T08:46:57;101823.56;;;2.14;93.17
17230;BME280;8731;50.364;8.958;2023-01-25T08:51:19;101828.59;;;2.14;93.80
17230;BME280;8731;50.364;8.958;2023-01-25T08:55:43;101830.59;;;2.11;93.71
17230;BME280;8731;50.364;8.958;2023-01-25T09:00:07;101824.47;;;2.20;92.75
17230;BME280;8731;50.364;8.958;2023-01-25T09:04:30;101828.81;;;2.27;92.40
17230;BME280;8731;50.364;8.958;2023-01-25T09:08:54;101823.34;;;2.29;91.96
17230;BME280;8731;50.364;8.958;2023-01-25T09:13:19;101819.25;;;2.30;92.38
17230;BME280;8731;50.364;8.958;2023-01-25T09:17:41;101817.88;;;2.26;92.55
17230;BME280;8731;50.364;8.958;2023-01-25T09:22:04;101805.34;;;2.37;91.49
17230;BME280;8731;50.364;8.958;2023-01-25T09:26:26;101800.31;;;2.43;91.44
17230;BME280;8731;50.364;8.958;2023-01-25T09:30:54;101805.09;;;2.47;91.70
17230;BME280;8731;50.364;8.958;2023-01-25T09:35:27;101803.47;;;2.36;91.55
17230;BME280;8731;50.364;8.958;2023-01-25T09:39:50;101797.78;;;2.37;91.28
17230;BME280;8731;50.364;8.958;2023-01-25T09:44:23;101802.78;;;2.21;91.84
17230;BME280;8731;50.364;8.958;2023-01-25T09:49:02;101792.50;;;2.25;92.19
17230;BME280;8731;50.364;8.958;2023-01-25T09:53:33;101788.66;;;2.38;92.04
17230;BME280;8731;50.364;8.958;2023-01-25T09:58:00;101782.25;;;2.68;92.64
17230;BME280;8731;50.364;8.958;2023-01-25T10:02:34;101782.03;;;2.50;91.35
17230;BME280;8731;50.364;8.958;2023-01-25T10:07:10;101773.78;;;2.51;91.04
17230;BME280;8731;50.364;8.958;2023-01-25T10:11:39;101767.41;;;2.64;90.71
17230;BME280;8731;50.364;8.958;2023-01-25T10:16:05;101763.53;;;2.60;90.54
17230;BME280;8731;50.364;8.958;2023-01-25T10:20:37;101761.94;;;2.61;90.80
17230;BME280;8731;50.364;8.958;2023-01-25T10:25:18;101757.56;;;2.54;90.38
17230;BME280;8731;50.364;8.958;2023-01-25T10:29:48;101757.13;;;2.68;90.58
17230;BME280;8731;50.364;8.958;2023-01-25T10:34:17;101751.38;;;2.58;90.95
17230;BME280;8731;50.364;8.958;2023-01-25T10:38:42;101747.97;;;2.74;90.46
17230;BME280;8731;50.364;8.958;2023-01-25T10:43:14;101730.81;;;2.71;90.26
17230;BME280;8731;50.364;8.958;2023-01-25T10:47:40;101732.88;;;2.68;89.89
17230;BME280;8731;50.364;8.958;2023-01-25T10:52:14;101726.72;;;2.72;90.03
17230;BME280;8731;50.364;8.958;2023-01-25T10:56:38;101713.66;;;2.74;90.40
17230;BME280;8731;50.364;8.958;2023-01-25T11:01:03;101704.06;;;2.72;89.67
17230;BME280;8731;50.364;8.958;2023-01-25T11:05:30;101711.16;;;2.69;90.54
17230;BME280;8731;50.364;8.958;2023-01-25T11:09:53;101699.97;;;2.67;90.12
17230;BME280;8731;50.364;8.958;2023-01-25T11:14:16;101694.94;;;2.72;89.91
17230;BME280;8731;50.364;8.958;2023-01-25T11:18:49;101687.19;;;2.54;89.69
17230;BME280;8731;50.364;8.958;2023-01-25T11:23:22;101690.84;;;2.51;90.29
17230;BME280;8731;50.364;8.958;2023-01-25T11:27:45;101679.41;;;2.69;89.93
17230;BME280;8731;50.364;8.958;2023-01-25T11:32:15;101667.06;;;2.65;90.36
17230;BME280;8731;50.364;8.958;2023-01-25T11:36:54;101657.06;;;2.43;90.29
17230;BME280;8731;50.364;8.958;2023-01-25T11:41:32;101659.34;;;2.30;91.69
17230;BME280;8731;50.364;8.958;2023-01-25T11:46:14;101647.44;;;2.35;91.07
17230;BME280;8731;50.364;8.958;2023-01-25T11:50:46;101634.38;;;2.60;91.76
17230;BME280;8731;50.364;8.958;2023-01-25T11:55:23;101623.47;;;2.42;90.70
17230;BME280;8731;50.364;8.958;2023-01-25T11:59:59;101615.88;;;2.65;90.50
17230;BME280;8731;50.364;8.958;2023-01-25T12:04:55;101612.69;;;2.60;89.34
17230;BME280;8731;50.364;8.958;2023-01-25T12:09:44;101601.25;;;2.57;90.81
17230;BME280;8731;50.364;8.958;2023-01-25T12:14:28;101584.78;;;2.59;89.37
17230;BME280;8731;50.364;8.958;2023-01-25T12:19:27;101579.34;;;2.50;89.50
17230;BME280;8731;50.364;8.958;2023-01-25T12:24:10;101572.50;;;2.49;91.11
17230;BME280;8731;50.364;8.958;2023-01-25T12:28:44;101572.00;;;2.63;89.96
17230;BME280;8731;50.364;8.958;2023-01-25T12:33:14;101565.34;;;2.69;90.38
17230;BME280;8731;50.364;8.958;2023-01-25T12:37:41;101555.22;;;2.06;91.61
17230;BME280;8731;50.364;8.958;2023-01-25T12:42:11;101548.97;;;2.49;91.79
17230;BME280;8731;50.364;8.958;2023-01-25T12:46:40;101541.38;;;2.60;91.23
17230;BME280;8731;50.364;8.958;2023-01-25T12:51:08;101527.44;;;2.56;90.83
17230;BME280;8731;50.364;8.958;2023-01-25T12:55:31;101520.38;;;2.54;90.60
17230;BME280;8731;50.364;8.958;2023-01-25T12:59:59;101522.63;;;2.63;90.20
17230;BME280;8731;50.364;8.958;2023-01-25T13:04:49;101507.09;;;2.66;90.46
17230;BME280;8731;50.364;8.958;2023-01-25T13:09:25;101496.13;;;2.60;90.33
17230;BME280;8731;50.364;8.958;2023-01-25T13:14:19;101493.44;;;2.47;89.57
17230;BME280;8731;50.364;8.958;2023-01-25T13:18:48;101474.06;;;2.40;90.93
17230;BME280;8731;50.364;8.958;2023-01-25T13:23:29;101471.09;;;2.43;91.67
17230;BME280;8731;50.364;8.958;2023-01-25T13:33:03;101461.16;;;2.15;91.85
17230;BME280;8731;50.364;8.958;2023-01-25T13:37:31;101451.03;;;2.26;92.74
17230;BME280;8731;50.364;8.958;2023-01-25T13:41:58;101439.72;;;2.00;90.98
17230;BME280;8731;50.364;8.958;2023-01-25T13:46:23;101435.47;;;2.34;91.11
17230;BME280;8731;50.364;8.958;2023-01-25T13:50:49;101432.84;;;2.05;90.79
17230;BME280;8731;50.364;8.958;2023-01-25T13:55:16;101422.56;;;2.14;91.39
17230;BME280;8731;50.364;8.958;2023-01-25T13:59:39;101417.06;;;2.11;91.04
17230;BME280;8731;50.364;8.958;2023-01-25T14:04:04;101409.00;;;2.31;90.38
17230;BME280;8731;50.364;8.958;2023-01-25T14:08:26;101400.00;;;1.98;90.13
17230;BME280;8731;50.364;8.958;2023-01-25T14:12:50;101395.00;;;1.98;91.97
17230;BME280;8731;50.364;8.958;2023-01-25T14:17:20;101392.22;;;2.02;91.94
17230;BME280;8731;50.364;8.958;2023-01-25T14:21:44;101390.31;;;2.23;92.00
17230;BME280;8731;50.364;8.958;2023-01-25T14:26:21;101381.34;;;2.31;90.99
17230;BME280;8731;50.364;8.958;2023-01-25T14:30:49;101368.31;;;2.33;90.63
17230;BME280;8731;50.364;8.958;2023-01-25T14:35:33;101371.50;;;2.38;90.37
17230;BME280;8731;50.364;8.958;2023-01-25T14:39:59;101364.41;;;2.35;90.07
17230;BME280;8731;50.364;8.958;2023-01-25T14:44:32;101348.41;;;2.40;89.81
17230;BME280;8731;50.364;8.958;2023-01-25T14:49:13;101350.06;;;2.29;89.70
17230;BME280;8731;50.364;8.958;2023-01-25T14:53:46;101341.34;;;2.38;89.67
17230;BME280;8731;50.364;8.958;2023-01-25T14:58:15;101332.44;;;2.34;90.03
17230;BME280;8731;50.364;8.958;2023-01-25T15:02:44;101333.56;;;2.36;90.04
17230;BME280;8731;50.364;8.958;2023-01-25T15:07:31;101339.59;;;2.26;90.38
17230;BME280;8731;50.364;8.958;2023-01-25T15:12:00;101325.13;;;2.36;90.50
17230;BME280;8731;50.364;8.958;2023-01-25T15:16:33;101322.19;;;2.33;90.63
17230;BME280;8731;50.364;8.958;2023-01-25T15:20:56;101325.00;;;2.23;90.23
17230;BME280;8731;50.364;8.958;2023-01-25T15:25:18;101320.41;;;2.26;90.38
17230;BME280;8731;50.364;8.958;2023-01-25T15:29:40;101321.78;;;2.24;90.56
17230;BME280;8731;50.364;8.958;2023-01-25T15:34:04;101314.97;;;2.18;90.94
17230;BME280;8731;50.364;8.958;2023-01-25T15:38:31;101306.28;;;2.21;90.08
17230;BME280;8731;50.364;8.958;2023-01-25T15:42:53;101313.81;;;2.21;91.13
17230;BME280;8731;50.364;8.958;2023-01-25T15:47:15;101310.66;;;2.17;90.42
17230;BME280;8731;50.364;8.958;2023-01-25T15:51:39;101306.28;;;2.21;90.83
17230;BME280;8731;50.364;8.958;2023-01-25T15:56:04;101307.03;;;2.09;90.41
17230;BME280;8731;50.364;8.958;2023-01-25T16:00:32;101299.31;;;2.02;91.07
17230;BME280;8731;50.364;8.958;2023-01-25T16:04:54;101301.63;;;1.95;91.38
17230;BME280;8731;50.364;8.958;2023-01-25T16:09:20;101302.22;;;2.16;91.49
17230;BME280;8731;50.364;8.958;2023-01-25T16:13:43;101301.31;;;2.10;91.53
17230;BME280;8731;50.364;8.958;2023-01-25T16:18:05;101308.34;;;2.18;91.29
17230;BME280;8731;50.364;8.958;2023-01-25T16:22:32;101302.44;;;2.18;90.79
17230;BME280;8731;50.364;8.958;2023-01-25T16:26:57;101300.81;;;2.18;91.76
17230;BME280;8731;50.364;8.958;2023-01-25T16:31:20;101302.94;;;2.04;91.13
17230;BME280;8731;50.364;8.958;2023-01-25T16:35:43;101302.00;;;2.14;91.44
17230;BME280;8731;50.364;8.958;2023-01-25T16:40:18;101294.91;;;2.12;91.27
17230;BME280;8731;50.364;8.958;2023-01-25T16:44:45;101292.16;;;2.10;92.02
17230;BME280;8731;50.364;8.958;2023-01-25T16:49:13;101285.31;;;2.09;91.46
17230;BME280;8731;50.364;8.958;2023-01-25T16:53:37;101288.06;;;2.11;91.31
17230;BME280;8731;50.364;8.958;2023-01-25T16:57:59;101272.56;;;2.08;92.21
17230;BME280;8731;50.364;8.958;2023-01-25T17:02:23;101277.09;;;2.10;91.23
17230;BME280;8731;50.364;8.958;2023-01-25T17:06:48;101274.38;;;2.14;91.81
17230;BME280;8731;50.364;8.958;2023-01-25T17:11:12;101262.03;;;2.10;91.60
17230;BME280;8731;50.364;8.958;2023-01-25T17:15:37;101262.28;;;2.06;91.35
17230;BME280;8731;50.364;8.958;2023-01-25T17:20:01;101259.13;;;2.02;91.53
17230;BME280;8731;50.364;8.958;2023-01-25T17:24:24;101258.41;;;2.08;92.14
17230;BME280;8731;50.364;8.958;2023-01-25T17:28:48;101255.72;;;2.01;92.17
17230;BME280;8731;50.364;8.958;2023-01-25T17:33:11;101255.75;;;1.96;93.03
17230;BME280;8731;50.364;8.958;2023-01-25T17:37:37;101253.50;;;1.92;92.98
17230;BME280;8731;50.364;8.958;2023-01-25T17:42:00;101245.44;;;2.00;92.95
17230;BME280;8731;50.364;8.958;2023-01-25T17:46:26;101238.34;;;2.03;93.04
17230;BME280;8731;50.364;8.958;2023-01-25T17:51:00;101230.59;;;2.01;93.02
17230;BME280;8731;50.364;8.958;2023-01-25T17:55:24;101229.94;;;1.97;92.57
17230;BME280;8731;50.364;8.958;2023-01-25T17:59:47;101226.53;;;1.96;93.77
17230;BME280;8731;50.364;8.958;2023-01-25T18:04:09;101224.97;;;1.91;93.29
17230;BME280;8731;50.364;8.958;2023-01-25T18:08:32;101218.72;;;2.00;93.54
17230;BME280;8731;50.364;8.958;2023-01-25T18:12:56;101213.72;;;2.00;93.04
17230;BME280;8731;50.364;8.958;2023-01-25T18:17:18;101211.25;;;1.95;93.45
17230;BME280;8731;50.364;8.958;2023-01-25T18:21:41;101201.91;;;1.94;93.76
17230;BME280;8731;50.364;8.958;2023-01-25T18:26:04;101192.88;;;1.77;94.49
17230;BME280;8731;50.364;8.958;2023-01-25T18:30:33;101195.06;;;1.87;93.96
17230;BME280;8731;50.364;8.958;2023-01-25T18:34:56;101191.69;;;1.81;93.70
17230;BME280;8731;50.364;8.958;2023-01-25T18:39:18;101189.34;;;1.94;93.23
17230;BME280;8731;50.364;8.958;2023-01-25T18:43:41;101178.63;;;1.89;94.01
17230;BME280;8731;50.364;8.958;2023-01-25T18:48:05;101174.53;;;1.90;93.67
17230;BME280;8731;50.364;8.958;2023-01-25T18:52:29;101174.28;;;1.94;94.13
17230;BME280;8731;50.364;8.958;2023-01-25T18:56:52;101168.56;;;1.89;93.73
17230;BME280;8731;50.364;8.958;2023-01-25T19:01:17;101171.34;;;1.85;94.58
17230;BME280;8731;50.364;8.958;2023-01-25T19:05:41;101156.75;;;1.82;94.21
17230;BME280;8731;50.364;8.958;2023-01-25T19:10:11;101164.50;;;1.84;94.69
17230;BME280;8731;50.364;8.958;2023-01-25T19:14:33;101153.56;;;1.83;95.31
17230;BME280;8731;50.364;8.958;2023-01-25T19:18:55;101138.03;;;1.86;94.61
17230;BME280;8731;50.364;8.958;2023-01-25T19:23:19;101131.19;;;1.85;95.07
17230;BME280;8731;50.364;8.958;2023-01-25T19:27:41;101139.47;;;1.78;94.39
17230;BME280;8731;50.364;8.958;2023-01-25T19:32:04;101132.78;;;1.84;94.95
17230;BME280;8731;50.364;8.958;2023-01-25T19:36:27;101128.72;;;1.79;94.12
17230;BME280;8731;50.364;8.958;2023-01-25T19:40:52;101116.66;;;1.77;94.24
17230;BME280;8731;50.364;8.958;2023-01-25T19:45:15;101117.97;;;1.51;94.47
17230;BME280;8731;50.364;8.958;2023-01-25T19:49:37;101107.09;;;1.74;94.70
17230;BME280;8731;50.364;8.958;2023-01-25T19:54:01;101106.13;;;1.79;94.63
17230;BME280;8731;50.364;8.958;2023-01-25T19:58:26;101094.28;;;1.78;94.20
17230;BME280;8731;50.364;8.958;2023-01-25T20:02:48;101096.34;;;1.75;94.70
17230;BME280;8731;50.364;8.958;2023-01-25T20:07:10;101098.44;;;1.72;94.93
17230;BME280;8731;50.364;8.958;2023-01-25T20:11:33;101092.56;;;1.66;94.92
17230;BME280;8731;50.364;8.958;2023-01-25T20:15:57;101076.19;;;1.57;95.86
17230;BME280;8731;50.364;8.958;2023-01-25T20:20:19;101070.69;;;1.60;95.60
17230;BME280;8731;50.364;8.958;2023-01-25T20:24:41;101073.41;;;1.61;95.31
17230;BME280;8731;50.364;8.958;2023-01-25T20:29:05;101073.84;;;1.64;95.91
17230;BME280;8731;50.364;8.958;2023-01-25T20:33:29;101082.06;;;1.63;96.02
17230;BME280;8731;50.364;8.958;2023-01-25T20:37:52;101077.78;;;1.57;96.09
17230;BME280;8731;50.364;8.958;2023-01-25T20:42:15;101088.47;;;1.61;95.67
17230;BME280;8731;50.364;8.958;2023-01-25T20:46:38;101093.97;;;1.59;95.89
17230;BME280;8731;50.364;8.958;2023-01-25T20:51:05;101093.75;;;1.57;96.58
17230;BME280;8731;50.364;8.958;2023-01-25T20:55:29;101081.47;;;1.53;95.38
17230;BME280;8731;50.364;8.958;2023-01-25T20:59:51;101079.66;;;1.52;96.57
17230;BME280;8731;50.364;8.958;2023-01-25T21:04:14;101079.00;;;1.42;95.29
17230;BME280;8731;50.364;8.958;2023-01-25T21:08:38;101076.28;;;1.46;94.84
17230;BME280;8731;50.364;8.958;2023-01-25T21:13:00;101075.50;;;1.58;94.95
17230;BME280;8731;50.364;8.958;2023-01-25T21:17:23;101060.00;;;1.55;94.16
17230;BME280;8731;50.364;8.958;2023-01-25T21:21:45;101043.41;;;1.50;95.04
17230;BME280;8731;50.364;8.958;2023-01-25T21:26:12;101045.25;;;1.45;94.76
17230;BME280;8731;50.364;8.958;2023-01-25T21:30:36;101057.38;;;1.37;95.15
17230;BME280;8731;50.364;8.958;2023-01-25T21:34:59;101034.31;;;1.45;95.16
17230;BME280;8731;50.364;8.958;2023-01-25T21:39:21;101022.06;;;1.35;94.88
17230;BME280;8731;50.364;8.958;2023-01-25T21:43:45;101023.16;;;1.43;95.28
17230;BME280;8731;50.364;8.958;2023-01-25T21:48:25;101020.25;;;1.34;94.63
17230;BME280;8731;50.364;8.958;2023-01-25T21:53:05;101014.47;;;1.46;94.22
17230;BME280;8731;50.364;8.958;2023-01-25T21:57:28;101006.16;;;1.29;94.46
17230;BME280;8731;50.364;8.958;2023-01-25T22:01:53;100997.34;;;1.14;94.85
17230;BME280;8731;50.364;8.958;2023-01-25T22:06:16;100998.25;;;1.20;94.54
17230;BME280;8731;50.364;8.958;2023-01-25T22:10:39;100999.53;;;0.95;94.89
17230;BME280;8731;50.364;8.958;2023-01-25T22:15:01;100979.81;;;1.14;95.46
17230;BME280;8731;50.364;8.958;2023-01-25T22:19:25;100983.13;;;0.97;95.46
17230;BME280;8731;50.364;8.958;2023-01-25T22:23:48;100983.47;;;1.11;96.89
17230;BME280;8731;50.364;8.958;2023-01-25T22:28:12;100971.91;;;1.06;94.68
17230;BME280;8731;50.364;8.958;2023-01-25T22:32:36;100966.94;;;1.00;95.69
17230;BME280;8731;50.364;8.958;2023-01-25T22:36:59;100976.75;;;0.93;97.30
17230;BME280;8731;50.364;8.958;2023-01-25T22:41:23;100971.84;;;1.11;95.81
17230;BME280;8731;50.364;8.958;2023-01-25T22:45:48;100967.75;;;1.12;95.74
17230;BME280;8731;50.364;8.958;2023-01-25T22:50:11;100959.31;;;1.11;95.95
17230;BME280;8731;50.364;8.958;2023-01-25T22:54:35;100949.03;;;1.15;96.33
17230;BME280;8731;50.364;8.958;2023-01-25T22:58:58;100950.63;;;1.15;95.76
17230;BME280;8731;50.364;8.958;2023-01-25T23:03:21;100947.47;;;1.10;96.58
17230;BME280;8731;50.364;8.958;2023-01-25T23:07:44;100944.38;;;1.00;96.64
17230;BME280;8731;50.364;8.958;2023-01-25T23:12:07;100934.25;;;1.11;95.68
17230;BME280;8731;50.364;8.958;2023-01-25T23:16:30;100937.72;;;1.06;95.90
17230;BME280;8731;50.364;8.958;2023-01-25T23:20:53;100937.31;;;0.98;95.91
17230;BME280;8731;50.364;8.958;2023-01-25T23:25:15;100923.44;;;1.23;95.75
17230;BME280;8731;50.364;8.958;2023-01-25T23:29:39;100921.50;;;1.10;95.92
17230;BME280;8731;50.364;8.958;2023-01-25T23:34:03;100925.75;;;1.22;95.43
17230;BME280;8731;50.364;8.958;2023-01-25T23:38:26;100913.50;;;1.12;96.50
17230;BME280;8731;50.364;8.958;2023-01-25T23:42:48;100905.97;;;1.12;95.72
17230;BME280;8731;50.364;8.958;2023-01-25T23:47:12;100895.09;;;0.77;95.92
17230;BME280;8731;50.364;8.958;2023-01-25T23:51:34;100878.34;;;0.88;96.49